createdAt,value
2022-08-08T00:02:04.007Z,100158.69
2022-08-08T00:04:48.953Z,100154.34
2022-08-08T00:07:37.911Z,100154.91
2022-08-08T00:10:29.961Z,100159.63
2022-08-08T00:14:17.442Z,100157.59
2022-08-08T00:16:51.442Z,100150.69
2022-08-08T00:19:35.308Z,100159.06
2022-08-08T00:22:11.105Z,100153.00
2022-08-08T00:24:45.914Z,100151.44
2022-08-08T00:27:19.940Z,100152.31
2022-08-08T00:30:03.712Z,100147.41
2022-08-08T00:32:46.292Z,100155.53
2022-08-08T00:35:51.778Z,100161.47
2022-08-08T00:39:00.964Z,100155.91
2022-08-08T00:42:31.430Z,100162.66
2022-08-08T00:45:45.559Z,100159.13
2022-08-08T00:48:59.267Z,100155.31
2022-08-08T00:52:19.912Z,100153.06
2022-08-08T00:54:56.026Z,100149.91
2022-08-08T00:57:43.727Z,100146.63
2022-08-08T01:00:19.572Z,100148.16
2022-08-08T01:04:01.492Z,100153.78
2022-08-08T01:06:33.404Z,100147.59
2022-08-08T01:09:41.684Z,100154.38
2022-08-08T01:12:47.253Z,100156.44
2022-08-08T01:15:54.957Z,100156.78
2022-08-08T01:18:54.130Z,100156.44
2022-08-08T01:22:12.577Z,100154.44
2022-08-08T01:24:56.234Z,100165.28
2022-08-08T01:28:02.120Z,100164.38
2022-08-08T01:30:53.802Z,100156.03
2022-08-08T01:33:42.793Z,100153.16
2022-08-08T01:36:50.985Z,100155.38
2022-08-08T01:39:35.003Z,100154.88
2022-08-08T01:42:21.520Z,100155.28
2022-08-08T01:45:41.936Z,100158.31
2022-08-08T01:48:48.474Z,100158.44
2022-08-08T01:52:00.937Z,100158.66
2022-08-08T01:55:27.165Z,100158.28
2022-08-08T01:58:13.081Z,100151.69
2022-08-08T02:01:00.545Z,100155.94
2022-08-08T02:04:24.503Z,100159.75
2022-08-08T02:07:49.631Z,100154.28
2022-08-08T02:10:46.116Z,100163.84
2022-08-08T02:13:54.834Z,100166.81
2022-08-08T02:16:08.617Z,100166.97
2022-08-08T02:19:26.610Z,100167.63
2022-08-08T02:22:32.291Z,100172.72
2022-08-08T02:25:23.408Z,100171.44
2022-08-08T02:28:05.626Z,100172.78
2022-08-08T02:31:43.574Z,100183.19
2022-08-08T02:34:36.111Z,100179.34
2022-08-08T02:37:52.875Z,100177.28
2022-08-08T02:40:50.133Z,100183.56
2022-08-08T02:44:38.946Z,100175.06
2022-08-08T02:46:54.597Z,100175.56
2022-08-08T02:49:47.871Z,100179.34
2022-08-08T02:52:38.326Z,100176.75
2022-08-08T02:56:01.708Z,100191.03
2022-08-08T02:58:59.490Z,100180.72
2022-08-08T03:01:53.055Z,100184.75
2022-08-08T03:05:02.558Z,100186.28
2022-08-08T03:08:12.965Z,100192.22
2022-08-08T03:11:25.978Z,100188.28
2022-08-08T03:16:02.084Z,100195.25
2022-08-08T03:17:59.630Z,100198.28
2022-08-08T03:20:54.481Z,100206.47
2022-08-08T03:23:56.498Z,100197.03
2022-08-08T03:26:30.669Z,100203.94
2022-08-08T03:29:03.283Z,100197.25
2022-08-08T03:32:05.828Z,100206.16
2022-08-08T03:34:41.518Z,100195.53
2022-08-08T03:37:20.166Z,100191.22
2022-08-08T03:40:06.355Z,100198.28
2022-08-08T03:42:39.470Z,100193.81
2022-08-08T03:46:02.969Z,100187.94
2022-08-08T03:48:21.348Z,100199.16
2022-08-08T03:50:58.250Z,100202.22
2022-08-08T03:53:42.654Z,100196.31
2022-08-08T03:56:32.228Z,100207.94
2022-08-08T03:59:02.716Z,100204.88
2022-08-08T04:02:31.670Z,100211.34
2022-08-08T04:04:47.144Z,100212.44
2022-08-08T04:07:39.274Z,100216.59
2022-08-08T04:10:10.461Z,100217.13
2022-08-08T04:12:39.592Z,100226.16
2022-08-08T04:15:17.903Z,100211.22
2022-08-08T04:18:07.042Z,100227.38
2022-08-08T04:20:43.678Z,100225.16
2022-08-08T04:23:22.694Z,100222.69
2022-08-08T04:25:50.009Z,100222.56
2022-08-08T04:28:37.115Z,100226.53
2022-08-08T04:31:10.238Z,100231.25
2022-08-08T04:34:00.291Z,100237.00
2022-08-08T04:36:31.139Z,100238.19
2022-08-08T04:39:47.809Z,100235.84
2022-08-08T04:41:50.612Z,100234.66
2022-08-08T04:44:18.779Z,100234.13
2022-08-08T04:46:48.135Z,100240.91
2022-08-08T04:49:28.702Z,100239.13
2022-08-08T04:52:15.628Z,100242.75
2022-08-08T04:54:45.966Z,100240.66
2022-08-08T04:57:18.948Z,100243.13
2022-08-08T04:59:52.519Z,100251.22
2022-08-08T05:02:30.754Z,100247.88
2022-08-08T05:05:06.243Z,100249.59
2022-08-08T05:07:46.473Z,100246.38
2022-08-08T05:10:18.010Z,100253.91
2022-08-08T05:13:00.159Z,100248.97
2022-08-08T05:16:47.886Z,100244.66
2022-08-08T05:18:24.456Z,100250.63
2022-08-08T05:20:58.700Z,100250.84
2022-08-08T05:24:04.404Z,100258.47
2022-08-08T05:26:46.947Z,100255.28
2022-08-08T05:29:17.090Z,100260.97
2022-08-08T05:32:03.444Z,100263.50
2022-08-08T05:34:51.541Z,100258.78
2022-08-08T05:37:48.997Z,100259.44
2022-08-08T05:40:29.024Z,100261.78
2022-08-08T05:43:38.162Z,100269.34
2022-08-08T05:46:08.248Z,100275.78
2022-08-08T05:48:42.502Z,100268.25
2022-08-08T05:51:13.550Z,100270.16
2022-08-08T05:54:27.238Z,100277.41
2022-08-08T05:57:04.672Z,100278.97
2022-08-08T06:00:00.731Z,100263.28
2022-08-08T06:02:48.163Z,100264.03
2022-08-08T06:05:33.822Z,100265.16
2022-08-08T06:08:09.327Z,100271.41
2022-08-08T06:10:46.504Z,100280.72
2022-08-08T06:13:15.907Z,100285.19
2022-08-08T06:15:53.578Z,100295.34
2022-08-08T06:18:28.289Z,100288.38
2022-08-08T06:21:28.198Z,100295.50
2022-08-08T06:24:03.753Z,100295.75
2022-08-08T06:27:10.323Z,100294.06
2022-08-08T06:30:00.263Z,100291.81
2022-08-08T06:33:09.327Z,100293.78
2022-08-08T06:36:08.244Z,100291.22
2022-08-08T06:38:47.156Z,100284.63
2022-08-08T06:41:33.127Z,100293.25
2022-08-08T06:44:24.929Z,100288.31
2022-08-08T06:47:00.089Z,100283.44
2022-08-08T06:49:56.687Z,100292.53
2022-08-08T06:52:21.349Z,100293.28
2022-08-08T06:54:59.527Z,100283.59
2022-08-08T06:57:44.296Z,100286.34
2022-08-08T07:00:30.088Z,100291.06
2022-08-08T07:03:09.097Z,100286.66
2022-08-08T07:06:01.644Z,100291.16
2022-08-08T07:08:39.582Z,100288.50
2022-08-08T07:11:57.339Z,100289.28
2022-08-08T07:14:31.054Z,100293.13
2022-08-08T07:18:02.051Z,100298.09
2022-08-08T07:20:50.473Z,100303.28
2022-08-08T07:24:01.199Z,100291.06
2022-08-08T07:26:35.510Z,100294.81
2022-08-08T07:29:08.175Z,100295.78
2022-08-08T07:31:48.284Z,100291.88
2022-08-08T07:34:26.879Z,100300.34
2022-08-08T07:37:13.503Z,100290.56
2022-08-08T07:39:57.777Z,100291.75
2022-08-08T07:42:34.353Z,100294.75
2022-08-08T07:45:01.964Z,100289.59
2022-08-08T07:47:39.215Z,100290.31
2022-08-08T07:50:26.461Z,100292.91
2022-08-08T07:53:00.889Z,100303.94
2022-08-08T07:55:36.449Z,100297.09
2022-08-08T07:58:30.587Z,100288.84
2022-08-08T08:01:08.369Z,100298.91
2022-08-08T08:04:03.113Z,100295.63
2022-08-08T08:06:38.497Z,100294.69
2022-08-08T08:09:24.204Z,100289.84
2022-08-08T08:12:35.632Z,100298.44
2022-08-08T08:15:18.893Z,100303.03
2022-08-08T08:18:14.175Z,100294.84
2022-08-08T08:20:42.574Z,100300.97
2022-08-08T08:23:09.586Z,100295.13
2022-08-08T08:25:42.333Z,100300.53
2022-08-08T08:28:23.941Z,100295.81
2022-08-08T08:30:55.256Z,100302.31
2022-08-08T08:33:27.318Z,100309.53
2022-08-08T08:36:21.976Z,100302.38
2022-08-08T08:38:54.716Z,100294.28
2022-08-08T08:41:24.983Z,100298.91
2022-08-08T08:44:14.109Z,100303.00
2022-08-08T08:46:58.910Z,100303.44
2022-08-08T08:49:38.468Z,100289.84
2022-08-08T08:52:14.788Z,100301.19
2022-08-08T08:54:55.871Z,100301.59
2022-08-08T08:57:41.895Z,100299.50
2022-08-08T09:00:17.126Z,100298.41
2022-08-08T09:02:49.870Z,100300.84
2022-08-08T09:05:48.909Z,100299.34
2022-08-08T09:08:18.427Z,100289.22
2022-08-08T09:10:52.479Z,100294.00
2022-08-08T09:13:38.686Z,100299.44
2022-08-08T09:16:09.429Z,100295.91
2022-08-08T09:18:45.061Z,100292.53
2022-08-08T09:21:57.372Z,100297.09
2022-08-08T09:24:40.726Z,100293.34
2022-08-08T09:27:20.086Z,100287.94
2022-08-08T09:29:59.193Z,100289.31
2022-08-08T09:32:38.134Z,100290.72
2022-08-08T09:35:32.243Z,100295.72
2022-08-08T09:38:09.421Z,100292.56
2022-08-08T09:40:55.690Z,100296.22
2022-08-08T09:43:40.790Z,100291.81
2022-08-08T09:46:25.570Z,100281.53
2022-08-08T09:49:04.388Z,100276.06
2022-08-08T09:52:07.440Z,100274.94
2022-08-08T09:54:44.102Z,100279.63
2022-08-08T09:57:45.776Z,100285.44
2022-08-08T10:03:19.950Z,100280.28
2022-08-08T10:05:59.972Z,100278.66
2022-08-08T10:08:47.545Z,100288.53
2022-08-08T10:12:23.213Z,100285.06
2022-08-08T10:14:28.112Z,100286.44
2022-08-08T10:17:56.526Z,100277.00
2022-08-08T10:20:10.453Z,100271.75
2022-08-08T10:23:42.167Z,100273.56
2022-08-08T10:26:57.454Z,100275.69
2022-08-08T10:29:59.980Z,100275.81
2022-08-08T10:32:48.467Z,100275.88
2022-08-08T10:36:20.417Z,100271.47
2022-08-08T10:38:35.151Z,100275.88
2022-08-08T10:41:17.504Z,100275.88
2022-08-08T10:43:52.100Z,100274.50
2022-08-08T10:46:31.483Z,100279.19
2022-08-08T10:49:00.587Z,100271.59
2022-08-08T10:51:50.813Z,100276.75
2022-08-08T10:54:25.238Z,100272.84
2022-08-08T10:57:03.686Z,100262.09
2022-08-08T10:59:39.669Z,100271.81
2022-08-08T11:02:09.614Z,100269.06
2022-08-08T11:04:53.226Z,100260.66
2022-08-08T11:08:24.398Z,100255.25
2022-08-08T11:10:39.399Z,100263.03
2022-08-08T11:13:29.075Z,100246.69
2022-08-08T11:16:07.456Z,100253.00
2022-08-08T11:18:51.879Z,100245.47
2022-08-08T11:21:35.349Z,100247.34
2022-08-08T11:24:06.608Z,100241.88
2022-08-08T11:26:56.926Z,100248.53
2022-08-08T11:29:29.433Z,100250.38
2022-08-08T11:32:15.735Z,100236.81
2022-08-08T11:35:23.428Z,100239.13
2022-08-08T11:38:39.340Z,100240.81
2022-08-08T11:40:51.717Z,100236.81
2022-08-08T11:43:39.346Z,100232.84
2022-08-08T11:46:17.525Z,100236.19
2022-08-08T11:49:17.274Z,100228.00
2022-08-08T11:51:54.236Z,100232.09
2022-08-08T11:54:46.371Z,100227.03
2022-08-08T11:57:30.201Z,100236.59
2022-08-08T12:00:15.946Z,100225.22
2022-08-08T12:02:54.722Z,100226.63
2022-08-08T12:05:42.378Z,100224.16
2022-08-08T12:08:11.387Z,100224.03
2022-08-08T12:10:51.581Z,100226.91
2022-08-08T12:13:37.652Z,100227.47
2022-08-08T12:16:20.873Z,100235.72
2022-08-08T12:19:01.243Z,100228.81
2022-08-08T12:21:59.440Z,100221.00
2022-08-08T12:24:48.448Z,100228.00
2022-08-08T12:27:48.046Z,100226.63
2022-08-08T12:30:15.966Z,100228.41
2022-08-08T12:32:49.603Z,100227.16
2022-08-08T12:35:22.996Z,100222.00
2022-08-08T12:38:08.840Z,100217.91
2022-08-08T12:40:57.008Z,100216.56
2022-08-08T12:43:43.532Z,100219.06
2022-08-08T12:46:25.402Z,100212.91
2022-08-08T12:51:58.363Z,100206.81
2022-08-08T12:54:38.470Z,100204.84
2022-08-08T12:57:26.095Z,100200.69
2022-08-08T13:00:05.932Z,100195.59
2022-08-08T13:02:52.503Z,100193.53
2022-08-08T13:05:26.351Z,100194.19
2022-08-08T13:08:33.439Z,100195.44
2022-08-08T13:12:19.883Z,100192.91
2022-08-08T13:14:53.262Z,100197.38
2022-08-08T13:18:08.378Z,100190.59
2022-08-08T13:20:20.991Z,100182.31
2022-08-08T13:22:55.944Z,100185.84
2022-08-08T13:25:36.026Z,100187.56
2022-08-08T13:28:03.243Z,100180.63
2022-08-08T13:30:31.312Z,100180.44
2022-08-08T13:33:02.329Z,100184.47
2022-08-08T13:35:38.571Z,100182.56
2022-08-08T13:38:21.251Z,100180.78
2022-08-08T13:40:56.858Z,100180.75
2022-08-08T13:43:26.127Z,100181.38
2022-08-08T13:46:26.412Z,100177.19
2022-08-08T13:49:12.327Z,100180.53
2022-08-08T13:52:03.933Z,100181.81
2022-08-08T13:54:49.606Z,100179.81
2022-08-08T13:57:18.475Z,100180.56
2022-08-08T14:00:26.248Z,100180.19
2022-08-08T14:03:47.343Z,100180.28
2022-08-08T14:06:32.338Z,100171.84
2022-08-08T14:09:18.435Z,100168.56
2022-08-08T14:12:00.781Z,100176.03
2022-08-08T14:14:52.006Z,100166.88
2022-08-08T14:17:36.230Z,100172.19
2022-08-08T14:20:56.111Z,100174.91
2022-08-08T14:23:20.977Z,100174.06
2022-08-08T14:26:10.813Z,100174.66
2022-08-08T14:28:39.776Z,100176.59
2022-08-08T14:31:23.877Z,100184.88
2022-08-08T14:34:00.202Z,100176.53
2022-08-08T14:36:39.119Z,100181.03
2022-08-08T14:39:11.631Z,100170.97
2022-08-08T14:41:54.753Z,100180.44
2022-08-08T14:44:33.523Z,100174.38
2022-08-08T14:47:17.312Z,100172.38
2022-08-08T14:50:06.203Z,100167.75
2022-08-08T14:52:43.074Z,100178.34
2022-08-08T14:55:12.084Z,100178.53
2022-08-08T14:58:06.067Z,100181.47
2022-08-08T15:00:34.465Z,100189.75
2022-08-08T15:03:15.539Z,100175.66
2022-08-08T15:05:53.422Z,100180.41
2022-08-08T15:08:34.703Z,100179.25
2022-08-08T15:11:08.948Z,100175.19
2022-08-08T15:13:40.954Z,100169.41
2022-08-08T15:16:24.301Z,100175.81
2022-08-08T15:18:52.525Z,100172.00
2022-08-08T15:21:21.465Z,100170.28
2022-08-08T15:23:51.121Z,100172.16
2022-08-08T15:26:20.619Z,100172.38
2022-08-08T15:28:53.024Z,100172.81
2022-08-08T15:31:56.339Z,100169.94
2022-08-08T15:34:28.917Z,100174.84
2022-08-08T15:37:02.100Z,100173.56
2022-08-08T15:39:33.284Z,100174.88
2022-08-08T15:42:41.402Z,100168.34
2022-08-08T15:45:08.784Z,100171.56
2022-08-08T15:47:38.281Z,100164.47
2022-08-08T15:50:20.612Z,100166.00
2022-08-08T15:52:58.951Z,100171.91
2022-08-08T15:55:47.345Z,100166.06
2022-08-08T15:58:28.221Z,100168.03
2022-08-08T16:00:55.550Z,100166.97
2022-08-08T16:03:23.652Z,100169.16
2022-08-08T16:05:53.188Z,100166.31
2022-08-08T16:09:02.228Z,100169.25
2022-08-08T16:13:11.833Z,100169.94
2022-08-08T16:14:32.587Z,100176.13
2022-08-08T16:17:10.225Z,100174.22
2022-08-08T16:19:56.932Z,100175.47
2022-08-08T16:22:31.121Z,100167.50
2022-08-08T16:25:05.733Z,100172.91
2022-08-08T16:27:33.921Z,100168.72
2022-08-08T16:30:10.539Z,100159.56
2022-08-08T16:33:12.142Z,100173.44
2022-08-08T16:35:40.297Z,100162.50
2022-08-08T16:38:31.835Z,100172.03
2022-08-08T16:41:00.277Z,100172.88
2022-08-08T16:43:48.869Z,100176.34
2022-08-08T16:46:36.966Z,100166.84
2022-08-08T16:49:12.059Z,100172.47
2022-08-08T16:54:59.759Z,100179.06
2022-08-08T16:55:03.432Z,100185.94
2022-08-08T16:58:13.410Z,100180.50
2022-08-08T17:00:26.465Z,100180.03
2022-08-08T17:03:10.955Z,100185.28
2022-08-08T17:05:45.241Z,100185.66
2022-08-08T17:08:13.953Z,100187.34
2022-08-08T17:10:53.523Z,100183.03
2022-08-08T17:13:50.183Z,100190.28
2022-08-08T17:16:30.194Z,100189.00
2022-08-08T17:19:00.697Z,100189.69
2022-08-08T17:21:41.588Z,100190.31
2022-08-08T17:24:28.070Z,100191.78
2022-08-08T17:27:01.032Z,100192.91
2022-08-08T17:29:33.463Z,100190.13
2022-08-08T17:32:04.529Z,100193.28
2022-08-08T17:34:59.798Z,100198.69
2022-08-08T17:37:32.650Z,100193.13
2022-08-08T17:40:10.451Z,100199.78
2022-08-08T17:42:47.422Z,100207.00
2022-08-08T17:45:22.451Z,100212.16
2022-08-08T17:47:54.045Z,100211.84
2022-08-08T17:50:27.759Z,100213.94
2022-08-08T17:52:57.463Z,100211.66
2022-08-08T17:56:04.874Z,100219.03
2022-08-08T17:58:16.034Z,100216.84
2022-08-08T18:00:47.561Z,100213.00
2022-08-08T18:03:23.589Z,100222.00
2022-08-08T18:06:03.058Z,100221.47
2022-08-08T18:09:24.900Z,100223.53
2022-08-08T18:12:04.171Z,100233.25
2022-08-08T18:14:40.845Z,100233.94
2022-08-08T18:17:17.382Z,100236.38
2022-08-08T18:20:43.081Z,100239.38
2022-08-08T18:22:50.731Z,100230.97
2022-08-08T18:25:20.770Z,100246.56
2022-08-08T18:27:49.761Z,100237.72
2022-08-08T18:30:17.487Z,100237.66
2022-08-08T18:32:45.391Z,100238.34
2022-08-08T18:35:19.141Z,100248.81
2022-08-08T18:37:48.513Z,100258.13
2022-08-08T18:40:16.370Z,100250.31
2022-08-08T18:42:50.426Z,100261.84
2022-08-08T18:46:00.970Z,100259.50
2022-08-08T18:48:07.424Z,100262.47
2022-08-08T18:50:39.492Z,100266.81
2022-08-08T18:53:17.444Z,100263.16
2022-08-08T18:55:47.707Z,100274.78
2022-08-08T18:58:18.386Z,100273.03
2022-08-08T19:00:52.355Z,100283.78
2022-08-08T19:03:23.053Z,100278.78
2022-08-08T19:05:52.751Z,100276.56
2022-08-08T19:08:24.891Z,100283.38
2022-08-08T19:10:59.064Z,100278.59
2022-08-08T19:13:53.417Z,100280.38
2022-08-08T19:16:28.498Z,100284.97
2022-08-08T19:19:02.308Z,100278.56
2022-08-08T19:21:48.444Z,100286.09
2022-08-08T19:24:42.740Z,100287.91
2022-08-08T19:27:07.164Z,100283.91
2022-08-08T19:29:42.390Z,100285.69
2022-08-08T19:32:19.449Z,100287.72
2022-08-08T19:34:55.190Z,100282.91
2022-08-08T19:37:43.816Z,100291.94
2022-08-08T19:40:22.188Z,100292.53
2022-08-08T19:42:58.552Z,100290.41
2022-08-08T19:45:58.390Z,100297.22
2022-08-08T19:48:29.068Z,100301.78
2022-08-08T19:51:01.116Z,100298.44
2022-08-08T19:53:51.149Z,100308.25
2022-08-08T19:56:25.966Z,100307.53
2022-08-08T19:59:13.630Z,100304.75
2022-08-08T20:02:01.595Z,100301.59
2022-08-08T20:04:30.041Z,100301.81
2022-08-08T20:07:05.337Z,100299.91
2022-08-08T20:09:56.408Z,100301.38
2022-08-08T20:12:35.576Z,100303.09
2022-08-08T20:15:16.716Z,100303.69
2022-08-08T20:17:48.011Z,100301.94
2022-08-08T20:20:26.604Z,100301.78
2022-08-08T20:23:12.410Z,100307.81
2022-08-08T20:25:45.825Z,100309.53
2022-08-08T20:28:22.477Z,100309.72
2022-08-08T20:30:59.849Z,100307.72
2022-08-08T20:34:27.307Z,100321.69
2022-08-08T20:36:29.723Z,100318.13
2022-08-08T20:38:58.914Z,100319.09
2022-08-08T20:41:33.824Z,100313.59
2022-08-08T20:44:02.208Z,100316.31
2022-08-08T20:46:49.201Z,100312.84
2022-08-08T20:49:20.369Z,100319.09
2022-08-08T20:51:52.076Z,100320.34
2022-08-08T20:54:26.336Z,100316.41
2022-08-08T20:57:43.980Z,100319.13
2022-08-08T21:00:16.116Z,100316.13
2022-08-08T21:02:48.643Z,100319.81
2022-08-08T21:05:23.173Z,100319.50
2022-08-08T21:08:36.586Z,100316.88
2022-08-08T21:11:01.106Z,100322.91
2022-08-08T21:13:41.025Z,100327.56
2022-08-08T21:16:20.790Z,100321.47
2022-08-08T21:18:57.895Z,100323.78
2022-08-08T21:21:41.163Z,100324.31
2022-08-08T21:24:20.937Z,100317.41
2022-08-08T21:26:59.398Z,100322.38
2022-08-08T21:30:05.299Z,100321.72
2022-08-08T21:32:24.885Z,100327.97
2022-08-08T21:36:14.585Z,100324.72
2022-08-08T21:38:04.163Z,100320.78
2022-08-08T21:40:35.775Z,100326.53
2022-08-08T21:43:10.164Z,100331.16
2022-08-08T21:45:44.393Z,100327.91
2022-08-08T21:48:41.268Z,100329.78
2022-08-08T21:51:13.212Z,100328.88
2022-08-08T21:54:22.737Z,100329.09
2022-08-08T21:56:42.078Z,100329.41
2022-08-08T21:59:17.034Z,100333.81
2022-08-08T22:02:10.859Z,100338.50
2022-08-08T22:04:59.534Z,100337.09
2022-08-08T22:07:40.697Z,100331.69
2022-08-08T22:10:32.330Z,100333.03
2022-08-08T22:13:16.993Z,100330.41
2022-08-08T22:16:01.286Z,100333.31
2022-08-08T22:18:40.394Z,100331.28
2022-08-08T22:21:15.463Z,100337.09
2022-08-08T22:23:51.387Z,100338.81
2022-08-08T22:26:30.981Z,100332.38
2022-08-08T22:29:56.485Z,100331.22
2022-08-08T22:32:01.620Z,100324.06
2022-08-08T22:34:41.546Z,100334.41
2022-08-08T22:37:27.670Z,100332.72
2022-08-08T22:40:12.001Z,100334.38
2022-08-08T22:42:50.878Z,100328.97
2022-08-08T22:45:19.831Z,100327.16
2022-08-08T22:47:51.880Z,100326.00
2022-08-08T22:50:38.570Z,100333.78
2022-08-08T22:54:29.354Z,100331.34
2022-08-08T22:56:04.941Z,100329.19
2022-08-08T22:58:40.310Z,100335.03
2022-08-08T23:01:30.265Z,100342.19
2022-08-08T23:03:58.777Z,100334.38
2022-08-08T23:06:33.273Z,100335.50
2022-08-08T23:09:30.667Z,100348.81
2022-08-08T23:12:28.731Z,100345.22
2022-08-08T23:14:53.292Z,100340.91
2022-08-08T23:17:24.235Z,100344.50
2022-08-08T23:19:59.037Z,100345.75
2022-08-08T23:22:26.752Z,100344.63
2022-08-08T23:24:57.367Z,100347.38
2022-08-08T23:27:38.212Z,100341.34
2022-08-08T23:30:14.594Z,100348.81
2022-08-08T23:32:44.123Z,100351.22
2022-08-08T23:35:18.671Z,100348.53
2022-08-08T23:38:03.269Z,100351.97
2022-08-08T23:40:31.927Z,100353.13
2022-08-08T23:43:02.697Z,100355.63
2022-08-08T23:49:04.328Z,100349.88
2022-08-08T23:49:04.765Z,100354.56
2022-08-08T23:51:12.650Z,100352.63
2022-08-08T23:54:05.890Z,100359.75
2022-08-08T23:56:58.862Z,100358.81
2022-08-08T23:59:32.076Z,100370.41
